Time;durP1;ratioP1;P1;durP2;ratioP2;P2;SDS_P1;SDS_P2;PMS_P1;PMS_P2;Temp;Humidity;BMP_temperature;BMP_pressure;BME280_temperature;BME280_humidity;BME280_pressure;Samples;Min_cycle;Max_cycle;Signal;HPM_P1;HPM_P2
2021/05/23 00:00:07;;;;;;;6.95;1.10;;;;;;;8.19;86.41;99660.69;5137915;27;20041;-79
2021/05/23 00:02:33;;;;;;;7.47;1.30;;;;;;;8.18;86.06;99662.41;5138117;27;20110;-80
2021/05/23 00:04:58;;;;;;;5.22;1.23;;;;;;;8.17;86.46;99665.06;5140093;27;20498;-80
2021/05/23 00:07:26;;;;;;;6.88;1.13;;;;;;;8.18;86.91;99666.75;5138373;27;20023;-80
2021/05/23 00:09:53;;;;;;;7.32;1.60;;;;;;;8.15;86.41;99664.22;5138987;27;20028;-80
2021/05/23 00:12:19;;;;;;;10.18;1.85;;;;;;;8.19;86.42;99663.28;5137446;27;20027;-80
2021/05/23 00:14:44;;;;;;;7.20;1.30;;;;;;;8.18;87.29;99664.16;5139490;27;20027;-80
2021/05/23 00:17:09;;;;;;;4.22;1.08;;;;;;;8.11;87.85;99654.88;5154795;27;20488;-80
2021/05/23 00:19:35;;;;;;;6.35;1.15;;;;;;;8.13;88.09;99660.81;5139898;27;20027;-80
2021/05/23 00:22:00;;;;;;;7.35;1.83;;;;;;;8.08;87.91;99664.38;5137227;27;20495;-80
2021/05/23 00:24:25;;;;;;;9.15;1.75;;;;;;;8.08;87.56;99666.09;5138555;27;20030;-80
2021/05/23 00:26:52;;;;;;;8.55;1.45;;;;;;;8.12;88.00;99666.88;5137048;27;20019;-80
2021/05/23 00:29:17;;;;;;;11.55;1.50;;;;;;;8.07;86.79;99665.25;5137089;27;20030;-80
2021/05/23 00:31:42;;;;;;;7.43;1.17;;;;;;;8.11;87.29;99671.22;5154681;27;20100;-80
2021/05/23 00:34:07;;;;;;;9.40;1.60;;;;;;;8.08;87.91;99664.38;5138838;27;20023;-80
2021/05/23 00:36:33;;;;;;;7.20;1.40;;;;;;;8.07;87.72;99667.00;5154372;27;20487;-80
2021/05/23 00:38:59;;;;;;;9.18;1.60;;;;;;;8.01;88.98;99669.72;5137791;27;20037;-80
2021/05/23 00:41:24;;;;;;;6.07;1.50;;;;;;;8.05;88.54;99667.03;5137640;27;20019;-80
2021/05/23 00:43:49;;;;;;;12.63;1.98;;;;;;;7.99;89.90;99667.16;5137550;27;20015;-80
2021/05/23 00:46:14;;;;;;;6.97;1.77;;;;;;;8.00;89.11;99670.59;5138871;27;20027;-80
2021/05/23 00:48:40;;;;;;;9.85;1.30;;;;;;;8.01;88.04;99659.41;5140062;27;20125;-80
2021/05/23 00:51:05;;;;;;;11.85;1.50;;;;;;;8.00;88.07;99666.25;5155073;27;20152;-80
2021/05/23 00:53:31;;;;;;;8.18;1.10;;;;;;;7.99;87.89;99674.91;5139271;27;20019;-80
2021/05/23 00:55:56;;;;;;;11.55;2.17;;;;;;;8.00;87.95;99680.91;5137740;27;20395;-80
2021/05/23 00:58:21;;;;;;;9.07;1.15;;;;;;;8.01;88.55;99675.72;5154504;27;20561;-80
2021/05/23 01:00:53;;;;;;;6.32;1.30;;;;;;;7.98;88.54;99683.53;5138903;27;20102;-80
2021/05/23 01:03:30;;;;;;;8.27;1.50;;;;;;;7.96;87.41;99674.97;5136880;27;20092;-80
2021/05/23 01:05:59;;;;;;;9.93;1.70;;;;;;;8.01;88.16;99680.91;5137795;27;20054;-80
2021/05/23 01:08:26;;;;;;;7.63;1.52;;;;;;;7.93;88.00;99681.94;5137964;27;20047;-80
2021/05/23 01:10:56;;;;;;;7.82;1.45;;;;;;;7.98;87.22;99683.53;5136900;27;20086;-80
2021/05/23 01:13:37;;;;;;;7.25;1.55;;;;;;;8.00;87.43;99689.50;5139076;27;20452;-80
2021/05/23 01:16:17;;;;;;;6.53;1.30;;;;;;;7.97;88.15;99688.72;5137816;27;20027;-80
2021/05/23 01:19:05;;;;;;;5.93;1.20;;;;;;;7.96;87.55;99695.63;5138964;27;20027;-81
2021/05/23 01:21:35;;;;;;;12.00;1.60;;;;;;;7.98;86.64;99686.13;5139126;27;20027;-80
2021/05/23 01:24:03;;;;;;;9.77;1.73;;;;;;;7.99;85.85;99687.81;5137324;27;20050;-80
2021/05/23 01:26:37;;;;;;;6.85;1.90;;;;;;;7.96;86.07;99698.22;5137254;27;20030;-80
2021/05/23 01:29:07;;;;;;;8.60;1.73;;;;;;;7.96;85.30;99690.47;5136820;27;20102;-80
2021/05/23 01:31:34;;;;;;;5.82;1.25;;;;;;;7.95;85.68;99691.34;5137309;27;20100;-80
2021/05/23 01:34:00;;;;;;;7.32;1.23;;;;;;;7.94;84.95;99694.78;5135833;27;20023;-80
2021/05/23 01:36:32;;;;;;;8.27;1.65;;;;;;;7.92;85.50;99688.00;5138064;27;20030;-80
2021/05/23 01:39:03;;;;;;;8.15;1.27;;;;;;;7.86;86.88;99688.97;5138221;27;20023;-80
2021/05/23 01:41:29;;;;;;;6.07;1.38;;;;;;;7.88;85.09;99688.91;5137242;27;20083;-80
2021/05/23 01:43:56;;;;;;;7.70;1.35;;;;;;;7.79;86.48;99685.66;5136012;27;20031;-80
2021/05/23 01:46:22;;;;;;;6.40;1.10;;;;;;;7.86;86.57;99699.28;5136939;27;20099;-80
2021/05/23 01:48:47;;;;;;;8.15;1.67;;;;;;;7.76;87.35;99695.22;5135986;27;20119;-80
2021/05/23 01:51:12;;;;;;;5.40;1.20;;;;;;;7.79;85.81;99698.56;5136711;27;20079;-80
2021/05/23 01:53:39;;;;;;;8.75;1.23;;;;;;;7.82;85.25;99701.09;5138940;27;20030;-80
2021/05/23 01:56:05;;;;;;;9.07;1.73;;;;;;;7.84;85.46;99698.47;5137417;27;20421;-80
2021/05/23 01:58:32;;;;;;;8.10;1.42;;;;;;;7.83;86.17;99704.53;5137765;27;20083;-80
2021/05/23 02:00:58;;;;;;;11.75;1.50;;;;;;;7.81;87.30;99701.97;5135858;27;20054;-80
2021/05/23 02:03:25;;;;;;;5.28;1.40;;;;;;;7.77;86.24;99704.66;5135583;27;20461;-80
2021/05/23 02:05:52;;;;;;;7.43;1.60;;;;;;;7.74;87.99;99700.41;5135787;27;20018;-80
2021/05/23 02:08:20;;;;;;;10.00;1.55;;;;;;;7.77;87.64;99708.06;5138695;27;20115;-80
2021/05/23 02:10:47;;;;;;;11.10;1.63;;;;;;;7.70;87.70;99703.09;5137681;27;20479;-80
2021/05/23 02:13:13;;;;;;;8.10;1.42;;;;;;;7.70;87.40;99703.94;5134958;27;20031;-80
2021/05/23 02:15:39;;;;;;;8.05;1.58;;;;;;;7.69;88.88;99709.09;5135564;27;20486;-80
2021/05/23 02:18:06;;;;;;;8.55;1.35;;;;;;;7.70;88.71;99705.66;5137044;27;20019;-80
2021/05/23 02:20:32;;;;;;;7.97;1.88;;;;;;;7.72;88.37;99707.31;5137329;27;20027;-80
2021/05/23 02:22:59;;;;;;;10.13;1.98;;;;;;;7.70;88.82;99710.81;5137653;27;20102;-80
2021/05/23 02:25:26;;;;;;;9.05;1.55;;;;;;;7.63;89.53;99706.66;5139713;27;20023;-80
2021/05/23 02:27:58;;;;;;;10.15;1.63;;;;;;;7.65;89.92;99710.06;5135281;28;20019;-80
2021/05/23 02:30:28;;;;;;;7.15;1.73;;;;;;;7.61;89.42;99710.13;5136486;27;20506;-80
2021/05/23 02:32:55;;;;;;;8.18;1.65;;;;;;;7.68;89.26;99715.16;5136492;27;20019;-80
2021/05/23 02:35:24;;;;;;;9.95;1.60;;;;;;;7.64;90.07;99718.69;5136223;27;20164;-80
2021/05/23 02:37:50;;;;;;;10.63;1.65;;;;;;;7.59;89.41;99716.19;5135890;28;20023;-80
2021/05/23 02:40:19;;;;;;;12.45;1.83;;;;;;;7.57;89.86;99712.78;5136172;28;20027;-80
2021/05/23 02:42:45;;;;;;;10.52;2.33;;;;;;;7.57;90.63;99720.50;5138487;28;20027;-80
2021/05/23 02:45:12;;;;;;;8.88;1.63;;;;;;;7.50;91.65;99718.94;5134600;28;20406;-80
2021/05/23 02:47:38;;;;;;;8.43;1.95;;;;;;;7.36;91.95;99720.06;5136134;27;20031;-80
2021/05/23 02:50:06;;;;;;;9.02;1.60;;;;;;;7.25;92.98;99726.28;5135933;27;20019;-80
2021/05/23 02:52:31;;;;;;;11.50;2.22;;;;;;;7.18;93.85;99727.28;5135950;27;20118;-80
2021/05/23 02:54:57;;;;;;;10.57;1.90;;;;;;;7.15;94.57;99730.78;5141720;27;20066;-80
2021/05/23 02:57:22;;;;;;;9.32;2.03;;;;;;;7.04;95.15;99740.41;5141633;27;20015;-78
2021/05/23 02:59:48;;;;;;;11.38;2.58;;;;;;;6.96;95.67;99737.09;5137091;27;20023;-78
2021/05/23 03:02:13;;;;;;;10.10;2.15;;;;;;;6.88;96.46;99744.97;5138232;27;20026;-78
2021/05/23 03:04:38;;;;;;;7.80;1.90;;;;;;;6.72;97.81;99746.09;5136896;27;20030;-78
2021/05/23 03:07:04;;;;;;;12.73;2.50;;;;;;;6.71;97.98;99746.94;5137904;27;20523;-78
2021/05/23 03:09:29;;;;;;;9.05;1.95;;;;;;;6.66;97.88;99749.63;5138241;27;20030;-78
2021/05/23 03:11:55;;;;;;;10.00;2.00;;;;;;;6.59;98.95;99748.88;5137068;27;20019;-78
2021/05/23 03:14:20;;;;;;;11.18;1.85;;;;;;;6.60;98.56;99752.28;5137487;27;20023;-78
2021/05/23 03:16:45;;;;;;;10.70;2.25;;;;;;;6.53;99.57;99754.09;5137094;27;20023;-80
2021/05/23 03:19:11;;;;;;;9.57;1.88;;;;;;;6.50;99.58;99753.31;5140171;27;20032;-80
2021/05/23 03:21:36;;;;;;;6.20;1.50;;;;;;;6.38;100.00;99762.06;5140359;27;20023;-80
2021/05/23 03:24:02;;;;;;;7.43;1.63;;;;;;;6.36;100.00;99766.38;5139290;27;20387;-80
2021/05/23 03:26:27;;;;;;;11.68;1.88;;;;;;;6.34;100.00;99768.09;5139154;27;20016;-80
2021/05/23 03:28:52;;;;;;;16.20;2.33;;;;;;;6.37;99.97;99768.06;5139288;27;20107;-80
2021/05/23 03:31:18;;;;;;;6.75;1.52;;;;;;;6.33;100.00;99774.97;5139866;27;20076;-80
2021/05/23 03:33:43;;;;;;;13.43;1.88;;;;;;;6.34;100.00;99774.13;5140297;27;20026;-80
2021/05/23 03:36:11;;;;;;;10.00;1.70;;;;;;;6.35;100.00;99780.97;5156391;27;20483;-80
2021/05/23 03:38:37;;;;;;;12.07;2.00;;;;;;;6.34;100.00;99780.97;5138897;27;20034;-80
2021/05/23 03:41:02;;;;;;;10.98;1.98;;;;;;;6.30;100.00;99776.75;5156194;27;20030;-80
2021/05/23 03:43:27;;;;;;;5.65;1.60;;;;;;;6.35;99.93;99786.13;5139923;27;20042;-80
2021/05/23 03:45:53;;;;;;;10.30;1.85;;;;;;;6.35;99.82;99791.28;5139858;27;20113;-80
2021/05/23 03:48:18;;;;;;;8.93;2.00;;;;;;;6.36;99.58;99792.97;5139975;27;20531;-80
2021/05/23 03:50:43;;;;;;;11.23;2.00;;;;;;;6.43;98.54;99797.19;5139948;27;20467;-80
2021/05/23 03:53:09;;;;;;;12.52;2.20;;;;;;;6.45;99.69;99794.56;5138099;27;20019;-80
2021/05/23 03:55:35;;;;;;;10.73;2.00;;;;;;;6.52;98.55;99797.91;5139488;27;20027;-80
2021/05/23 03:58:00;;;;;;;11.13;2.10;;;;;;;6.54;98.24;99797.03;5155428;27;20026;-80
2021/05/23 04:00:28;;;;;;;11.23;1.65;;;;;;;6.71;97.80;99806.22;5138350;27;20079;-80
2021/05/23 04:02:55;;;;;;;5.30;1.50;;;;;;;6.86;97.09;99808.56;5139720;27;20023;-80
2021/05/23 04:05:23;;;;;;;10.45;1.88;;;;;;;6.96;96.47;99809.28;5139444;27;20015;-80
2021/05/23 04:07:50;;;;;;;13.40;2.50;;;;;;;7.03;96.94;99809.16;5137717;27;20019;-80
2021/05/23 04:10:17;;;;;;;11.52;2.00;;;;;;;7.08;94.69;99809.09;5137764;27;20027;-80
2021/05/23 04:12:46;;;;;;;8.05;1.60;;;;;;;7.09;94.18;99810.81;5138025;27;20023;-80
2021/05/23 04:15:12;;;;;;;8.27;1.63;;;;;;;7.08;93.55;99815.13;5137964;27;20023;-80
2021/05/23 04:17:38;;;;;;;11.75;2.67;;;;;;;7.07;95.87;99821.13;5140266;27;20026;-80
2021/05/23 04:20:09;;;;;;;11.85;1.95;;;;;;;7.07;95.81;99828.00;5139503;27;20027;-80
2021/05/23 04:22:34;;;;;;;7.60;1.58;;;;;;;6.92;95.22;99818.78;5138199;27;20019;-80
2021/05/23 04:25:01;;;;;;;8.63;1.67;;;;;;;6.87;96.11;99825.75;5138707;27;20157;-80
2021/05/23 04:27:26;;;;;;;9.55;1.85;;;;;;;6.82;96.31;99828.38;5138418;27;20098;-80
2021/05/23 04:29:52;;;;;;;14.40;2.45;;;;;;;6.73;96.87;99833.69;5138563;27;20454;-80
2021/05/23 04:32:17;;;;;;;11.18;1.65;;;;;;;6.66;97.32;99832.06;5137756;27;20023;-80
2021/05/23 04:34:42;;;;;;;10.27;2.05;;;;;;;6.66;97.63;99835.50;5154860;27;20102;-80
2021/05/23 04:37:07;;;;;;;9.30;1.75;;;;;;;6.61;96.79;99837.28;5138295;27;20460;-80
2021/05/23 04:39:33;;;;;;;11.93;1.77;;;;;;;6.70;97.37;99841.44;5154659;27;20054;-80
2021/05/23 04:41:59;;;;;;;7.40;1.50;;;;;;;6.84;97.31;99847.28;5138674;27;20035;-80
2021/05/23 04:44:24;;;;;;;9.60;1.58;;;;;;;6.99;95.96;99840.16;5138368;27;20031;-80
2021/05/23 04:46:50;;;;;;;12.02;2.00;;;;;;;7.10;96.76;99848.59;5144072;22;20044;-77
2021/05/23 04:49:16;;;;;;;9.63;1.90;;;;;;;7.10;96.14;99852.03;5094911;28;20373;-78
2021/05/23 04:51:41;;;;;;;7.57;1.50;;;;;;;6.95;96.01;99851.41;5094953;28;20016;-77
2021/05/23 04:54:07;;;;;;;8.48;2.00;;;;;;;6.83;96.64;99855.84;5093934;28;20456;-78
2021/05/23 04:56:32;;;;;;;9.75;2.20;;;;;;;6.85;96.89;99861.84;5094723;28;20024;-77
2021/05/23 04:58:57;;;;;;;10.90;1.80;;;;;;;7.70;92.08;99871.69;5093602;28;20024;-77
2021/05/23 05:01:22;;;;;;;10.75;1.92;;;;;;;7.27;93.38;99875.00;5093525;28;20028;-77
2021/05/23 05:03:48;;;;;;;11.88;1.85;;;;;;;7.92;90.82;99872.16;5094781;28;20024;-77
2021/05/23 05:06:13;;;;;;;10.32;1.67;;;;;;;8.84;85.51;99878.09;5093253;28;20056;-77
2021/05/23 05:08:38;;;;;;;14.10;2.38;;;;;;;9.25;83.32;99881.44;5096988;28;20020;-77
2021/05/23 05:11:03;;;;;;;6.63;1.60;;;;;;;9.65;81.78;99883.91;5096346;28;20392;-78
2021/05/23 05:13:29;;;;;;;8.40;2.03;;;;;;;9.66;80.46;99882.16;5094484;28;20024;-77
2021/05/23 05:15:54;;;;;;;12.30;2.10;;;;;;;9.54;81.38;99885.91;5094454;28;20028;-79
2021/05/23 05:18:19;;;;;;;13.18;1.90;;;;;;;9.97;78.82;99895.16;5094451;28;20028;-78
2021/05/23 05:20:45;;;;;;;11.82;2.10;;;;;;;10.26;77.88;99894.44;5094298;28;20123;-78
2021/05/23 05:23:10;;;;;;;15.70;2.08;;;;;;;10.34;76.01;99889.00;5096471;28;20123;-78
2021/05/23 05:25:35;;;;;;;9.15;2.05;;;;;;;10.44;76.74;99894.81;5094924;28;20056;-79
2021/05/23 05:28:01;;;;;;;10.70;2.67;;;;;;;10.22;77.62;99892.78;5095856;28;20031;-79
2021/05/23 05:30:26;;;;;;;13.30;2.00;;;;;;;10.10;76.96;99903.50;5095141;28;20361;-79
2021/05/23 05:32:52;;;;;;;8.95;1.80;;;;;;;10.16;76.51;99908.50;5093746;28;20019;-79
2021/05/23 05:35:17;;;;;;;11.57;2.17;;;;;;;10.44;75.78;99903.44;5094297;28;20027;-79
2021/05/23 05:37:42;;;;;;;8.43;1.83;;;;;;;10.63;75.60;99905.50;5093261;28;20020;-79
2021/05/23 05:40:08;;;;;;;9.93;1.55;;;;;;;10.97;73.37;99913.13;5092848;28;20030;-79
2021/05/23 05:42:34;;;;;;;16.20;2.85;;;;;;;10.93;74.65;99912.38;5093658;28;20032;-79
2021/05/23 05:44:59;;;;;;;6.65;1.70;;;;;;;11.33;73.45;99913.75;5093468;28;20097;-80
2021/05/23 05:47:26;;;;;;;10.73;1.83;;;;;;;11.35;72.93;99914.53;5094987;28;20024;-79
2021/05/23 05:49:51;;;;;;;12.40;2.00;;;;;;;11.32;71.11;99914.63;5094126;28;20023;-79
2021/05/23 05:52:17;;;;;;;11.95;1.77;;;;;;;10.69;74.24;99913.13;5094875;28;20027;-79
2021/05/23 05:54:42;;;;;;;11.60;1.83;;;;;;;11.74;69.92;99921.94;5094109;28;20020;-79
2021/05/23 05:57:07;;;;;;;12.45;2.22;;;;;;;11.83;70.61;99908.66;5093393;28;20383;-79
2021/05/23 05:59:32;;;;;;;9.82;2.10;;;;;;;11.42;70.30;99920.38;5094953;28;20073;-79
2021/05/23 06:01:58;;;;;;;11.35;1.73;;;;;;;12.32;67.70;99916.53;5094285;28;20028;-79
2021/05/23 06:04:23;;;;;;;15.82;2.20;;;;;;;11.32;70.42;99925.00;5094517;28;20047;-79
2021/05/23 06:06:48;;;;;;;9.55;1.63;;;;;;;11.36;69.84;99928.34;5094642;28;20020;-79
2021/05/23 06:09:14;;;;;;;10.35;1.80;;;;;;;11.34;70.81;99940.56;5093974;28;20024;-79
2021/05/23 06:11:39;;;;;;;13.18;1.90;;;;;;;11.91;69.63;99939.59;5094686;28;20028;-79
2021/05/23 06:14:04;;;;;;;12.10;2.00;;;;;;;10.95;71.13;99930.50;5094557;28;20418;-79
2021/05/23 06:16:29;;;;;;;12.15;2.15;;;;;;;10.57;73.03;99928.13;5093323;28;20119;-79
2021/05/23 06:18:55;;;;;;;10.63;1.67;;;;;;;11.74;69.08;99927.97;5093553;28;20032;-79
2021/05/23 06:21:20;;;;;;;14.10;2.25;;;;;;;11.80;68.38;99915.69;5094295;28;20035;-79
2021/05/23 06:23:45;;;;;;;13.20;2.15;;;;;;;12.32;68.29;99917.38;5093134;28;20173;-80
2021/05/23 06:26:14;;;;;;;12.90;2.20;;;;;;;11.99;66.14;99927.19;5093262;28;20028;-80
2021/05/23 06:28:43;;;;;;;14.23;2.28;;;;;;;12.48;65.16;99919.41;5093480;28;20020;-80
2021/05/23 06:31:09;;;;;;;9.85;1.85;;;;;;;12.46;64.12;99934.22;5094277;28;20484;-80
2021/05/23 06:33:34;;;;;;;15.43;2.25;;;;;;;13.05;63.88;99934.63;5094109;28;20020;-80
2021/05/23 06:36:00;;;;;;;12.38;1.80;;;;;;;12.72;64.90;99931.53;5094492;28;20094;-80
2021/05/23 06:38:25;;;;;;;15.10;2.20;;;;;;;13.45;63.16;99934.81;5092809;28;20111;-78
2021/05/23 06:40:50;;;;;;;14.05;2.25;;;;;;;13.03;64.69;99944.22;5092721;28;20027;-79
2021/05/23 06:43:16;;;;;;;12.25;2.03;;;;;;;12.25;63.11;99957.47;5094428;28;20032;-79
2021/05/23 06:45:41;;;;;;;9.25;1.58;;;;;;;11.73;65.13;99960.06;5092705;28;20024;-79
2021/05/23 06:48:09;;;;;;;10.98;2.22;;;;;;;12.39;66.00;99968.25;5093738;28;20085;-80
2021/05/23 06:50:34;;;;;;;11.00;1.75;;;;;;;12.87;61.04;99963.94;5094049;28;20024;-79
2021/05/23 06:52:59;;;;;;;10.00;1.80;;;;;;;13.80;59.25;99968.13;5094189;28;20083;-78
2021/05/23 06:55:24;;;;;;;13.70;2.40;;;;;;;11.94;65.94;99975.88;5092119;28;20069;-77
2021/05/23 06:57:50;;;;;;;10.10;2.08;;;;;;;13.08;62.93;99977.88;5092880;28;20571;-77
2021/05/23 07:00:15;;;;;;;12.35;2.30;;;;;;;11.50;65.30;99989.34;5093037;28;20081;-76
2021/05/23 07:02:40;;;;;;;13.70;2.20;;;;;;;12.34;64.42;99990.97;5093013;28;20062;-78
2021/05/23 07:05:06;;;;;;;14.23;1.98;;;;;;;12.53;65.26;99995.50;5093715;28;20469;-79
2021/05/23 07:07:32;;;;;;;10.45;1.88;;;;;;;13.56;58.89;99992.56;5092587;28;20020;-79
2021/05/23 07:09:58;;;;;;;9.85;1.75;;;;;;;11.49;65.18;99998.06;5092262;28;20036;-78
2021/05/23 07:12:23;;;;;;;8.57;1.92;;;;;;;11.46;65.99;100007.69;5093477;28;20441;-78
2021/05/23 07:14:48;;;;;;;9.85;1.77;;;;;;;11.26;67.50;100006.53;5092200;28;20063;-78
2021/05/23 07:17:14;;;;;;;11.43;2.25;;;;;;;13.36;61.53;100003.75;5092781;28;20020;-77
2021/05/23 07:19:39;;;;;;;10.82;2.28;;;;;;;12.48;62.71;100011.31;5092789;28;20023;-77
2021/05/23 07:22:04;;;;;;;8.75;1.80;;;;;;;12.20;64.08;100004.44;5091807;28;20055;-78
2021/05/23 07:24:29;;;;;;;12.95;2.97;;;;;;;12.12;64.25;100010.78;5091414;28;20024;-77
2021/05/23 07:26:55;;;;;;;16.48;1.85;;;;;;;14.21;59.30;100003.81;5091573;28;20032;-79
2021/05/23 07:29:20;;;;;;;11.32;1.70;;;;;;;14.71;55.13;100009.47;5092004;28;20117;-78
2021/05/23 07:31:45;;;;;;;16.33;2.33;;;;;;;14.22;57.93;100006.38;5093153;28;20472;-78
2021/05/23 07:34:10;;;;;;;6.35;1.55;;;;;;;13.54;59.79;100002.19;5092740;28;20024;-78
2021/05/23 07:36:36;;;;;;;10.68;1.65;;;;;;;13.43;58.91;100007.84;5096499;28;20020;-79
2021/05/23 07:39:02;;;;;;;12.85;1.92;;;;;;;13.98;57.42;100013.47;5095866;28;20024;-79
2021/05/23 07:41:27;;;;;;;9.38;1.52;;;;;;;14.60;54.04;100016.13;5095917;28;20115;-79
2021/05/23 07:43:52;;;;;;;9.43;2.15;;;;;;;14.52;55.80;100023.41;5096071;28;20032;-79
2021/05/23 07:46:17;;;;;;;10.00;1.70;;;;;;;13.06;58.40;100032.63;5095582;28;20032;-77
2021/05/23 07:48:43;;;;;;;8.02;1.38;;;;;;;13.71;56.35;100027.59;5097585;28;20054;-79
2021/05/23 07:51:08;;;;;;;10.18;2.05;;;;;;;14.88;56.93;100034.88;5097457;28;20032;-78
2021/05/23 07:53:34;;;;;;;8.63;1.40;;;;;;;15.35;54.70;100036.22;5097177;28;20392;-79
2021/05/23 07:55:59;;;;;;;14.32;2.17;;;;;;;15.55;52.15;100040.56;5095682;28;20023;-78
2021/05/23 07:58:25;;;;;;;8.32;1.42;;;;;;;15.27;52.48;100040.97;5095567;28;20118;-78
2021/05/23 08:00:50;;;;;;;8.73;1.70;;;;;;;15.72;51.46;100037.16;5096994;28;20441;-81
2021/05/23 08:03:16;;;;;;;9.30;1.80;;;;;;;15.54;52.32;100047.50;5097237;28;20028;-80
2021/05/23 08:05:41;;;;;;;10.02;1.77;;;;;;;14.92;53.55;100044.25;5096012;28;20392;-79
2021/05/23 08:08:07;;;;;;;8.07;1.48;;;;;;;13.41;57.48;100059.13;5095753;28;20020;-79
2021/05/23 08:10:33;;;;;;;11.55;2.10;;;;;;;12.94;59.94;100059.13;5095429;28;20028;-79
2021/05/23 08:12:58;;;;;;;18.30;1.70;;;;;;;13.27;59.41;100053.59;5095819;28;20490;-79
2021/05/23 08:15:23;;;;;;;10.05;1.77;;;;;;;12.33;62.74;100066.44;5095328;28;20024;-80
2021/05/23 08:17:52;;;;;;;11.05;1.85;;;;;;;12.48;63.14;100071.13;5097580;28;20028;-80
2021/05/23 08:20:18;;;;;;;9.30;1.70;;;;;;;12.83;60.59;100071.66;5096730;28;20564;-79
2021/05/23 08:22:43;;;;;;;8.27;1.70;;;;;;;12.21;64.80;100075.50;5097177;28;20043;-81
2021/05/23 08:25:09;;;;;;;13.98;1.85;;;;;;;11.80;64.47;100075.03;5097116;28;20107;-80
2021/05/23 08:27:34;;;;;;;9.82;1.50;;;;;;;11.73;66.72;100086.53;5095225;28;20031;-79
2021/05/23 08:30:00;;;;;;;13.48;1.95;;;;;;;11.35;65.09;100083.31;5096654;28;20051;-80
2021/05/23 08:32:26;;;;;;;8.43;1.70;;;;;;;11.23;66.88;100091.44;5095812;28;20019;-79
2021/05/23 08:34:51;;;;;;;8.93;1.50;;;;;;;13.73;58.33;100088.31;5096004;28;20107;-80
2021/05/23 08:37:17;;;;;;;14.65;1.85;;;;;;;12.87;59.80;100094.09;5097524;28;20254;-80
2021/05/23 08:39:43;;;;;;;9.00;1.48;;;;;;;14.24;57.68;100082.78;5097579;28;20496;-80
2021/05/23 08:42:09;;;;;;;11.63;2.55;;;;;;;13.57;60.12;100093.28;5096376;28;20111;-80
2021/05/23 08:44:34;;;;;;;7.72;1.48;;;;;;;12.56;61.10;100105.53;5096286;28;20145;-80
2021/05/23 08:50:24;;;;;;;12.20;1.75;;;;;;;13.43;59.15;100101.63;5096508;28;20039;-80
2021/05/23 08:52:57;;;;;;;7.05;1.80;;;;;;;13.24;60.12;100104.03;5096106;28;20028;-80
2021/05/23 08:55:23;;;;;;;11.23;1.20;;;;;;;14.26;56.97;100103.59;5095935;28;20449;-79
2021/05/23 08:57:50;;;;;;;8.48;1.50;;;;;;;15.51;52.40;100114.78;5094709;28;20020;-81
2021/05/23 09:07:04;;;;;;;9.95;1.90;;;;;;;16.07;49.22;100103.44;5096602;28;20150;-81
2021/05/23 09:09:29;;;;;;;10.55;1.83;;;;;;;15.32;52.01;100109.53;5095027;28;20073;-79
2021/05/23 09:12:05;;;;;;;7.28;1.23;;;;;;;16.56;49.49;100112.38;5093856;28;20454;-80
2021/05/23 09:14:34;;;;;;;11.70;1.73;;;;;;;15.20;53.58;100111.78;5094995;28;20093;-79
2021/05/23 09:17:00;;;;;;;6.60;1.20;;;;;;;13.82;54.88;100122.72;5094659;28;20070;-78
2021/05/23 09:19:26;;;;;;;5.53;1.20;;;;;;;13.90;57.44;100126.78;5094661;28;20031;-79
2021/05/23 09:21:52;;;;;;;5.10;1.05;;;;;;;15.58;50.95;100124.06;5093143;28;20166;-79
2021/05/23 09:24:17;;;;;;;5.85;1.05;;;;;;;15.71;49.54;100121.75;5094483;28;20028;-78
2021/05/23 09:26:50;;;;;;;8.98;1.60;;;;;;;14.98;52.20;100116.25;5094255;28;20116;-78
2021/05/23 09:29:18;;;;;;;9.38;1.25;;;;;;;13.89;55.16;100119.88;5092950;28;20030;-78
2021/05/23 09:31:47;;;;;;;8.23;1.20;;;;;;;13.67;57.69;100128.50;5092831;28;20031;-78
2021/05/23 09:34:24;;;;;;;10.27;1.45;;;;;;;14.34;54.94;100124.16;5093874;28;20392;-78
2021/05/23 09:36:50;;;;;;;6.05;1.20;;;;;;;14.27;56.41;100126.16;5093857;28;20154;-78
2021/05/23 09:39:17;;;;;;;7.93;1.20;;;;;;;13.22;56.68;100136.22;5094029;28;20044;-77
2021/05/23 09:41:44;;;;;;;8.27;0.98;;;;;;;13.53;57.16;100134.22;5092778;28;20544;-78
2021/05/23 09:44:20;;;;;;;7.40;1.05;;;;;;;13.36;57.20;100147.00;5092742;28;20077;-78
2021/05/23 09:47:09;;;;;;;4.82;0.90;;;;;;;13.13;59.91;100138.25;5092639;28;20456;-78
2021/05/23 09:49:57;;;;;;;3.38;0.77;;;;;;;13.35;57.90;100150.53;5092555;28;20027;-78
2021/05/23 09:52:39;;;;;;;6.07;1.25;;;;;;;15.13;51.30;100141.72;5093735;28;20039;-78
2021/05/23 09:55:06;;;;;;;8.50;1.13;;;;;;;14.00;53.81;100147.19;5092462;28;20043;-78
2021/05/23 09:57:31;;;;;;;6.28;1.27;;;;;;;13.95;53.29;100145.72;5092304;28;20080;-77
2021/05/23 10:00:05;;;;;;;6.82;1.30;;;;;;;13.26;54.53;100148.25;5092459;28;20024;-78
2021/05/23 10:02:31;;;;;;;8.13;1.13;;;;;;;13.45;53.75;100154.50;5093441;28;20042;-77
2021/05/23 10:05:05;;;;;;;8.23;1.20;;;;;;;14.75;52.18;100148.59;5094706;28;20028;-77
2021/05/23 10:07:31;;;;;;;;;;;;;;;14.31;56.02;100150.38;5094168;28;20103;-79
2021/05/23 10:09:56;;;;;;;6.88;1.45;;;;;;;13.46;54.82;100161.44;5093818;28;19985;-78
2021/05/23 10:12:22;;;;;;;9.93;1.70;;;;;;;14.59;56.63;100155.34;5094129;28;20469;-79
2021/05/23 10:14:48;;;;;;;5.22;1.40;;;;;;;13.92;55.12;100162.31;5096319;28;20058;-81
2021/05/23 10:17:14;;;;;;;6.65;1.42;;;;;;;13.99;54.27;100176.81;5096608;28;20087;-80
2021/05/23 10:19:40;;;;;;;8.10;1.02;;;;;;;15.09;50.90;100170.66;5096237;28;20020;-80
2021/05/23 10:22:07;;;;;;;6.00;1.35;;;;;;;15.09;49.83;100174.09;5096526;28;20110;-80
2021/05/23 10:24:36;;;;;;;8.07;1.75;;;;;;;14.83;51.09;100169.97;5095963;28;20062;-80
2021/05/23 10:27:05;;;;;;;7.32;1.20;;;;;;;16.36;46.85;100162.25;5094049;28;20069;-79
2021/05/23 10:29:34;;;;;;;6.43;1.20;;;;;;;16.97;48.81;100169.69;5094806;28;20024;-81
2021/05/23 10:32:08;;;;;;;6.35;1.05;;;;;;;17.01;45.11;100166.00;5093991;28;20396;-81
2021/05/23 10:34:35;;;;;;;6.18;1.00;;;;;;;18.14;44.59;100172.22;5093229;28;20161;-81
2021/05/23 10:37:01;;;;;;;6.20;1.00;;;;;;;18.52;42.74;100163.94;5093590;28;20046;-82
2021/05/23 10:39:35;;;;;;;4.25;0.93;;;;;;;18.90;41.00;100170.56;5095352;28;20473;-81
2021/05/23 10:42:04;;;;;;;;;;;;;;;18.12;41.45;100166.19;5097013;28;20028;-81
2021/05/23 10:44:40;;;;;;;5.60;1.27;;;;;;;16.11;47.66;100171.25;5095915;28;20003;-81
2021/05/23 10:47:11;;;;;;;6.88;1.00;;;;;;;16.07;47.14;100184.53;5125662;23;20054;-82
2021/05/23 10:49:49;;;;;;;4.93;0.90;;;;;;;16.03;46.54;100183.84;5135233;28;20031;-82
2021/05/23 10:52:16;;;;;;;6.63;1.25;;;;;;;16.88;45.46;100185.88;5133821;28;20027;-82
2021/05/23 10:54:53;;;;;;;7.90;1.33;;;;;;;19.12;40.33;100188.53;5136778;27;20177;-82
2021/05/23 10:57:19;;;;;;;5.10;1.00;;;;;;;17.47;41.25;100188.97;5139739;28;20015;-82
2021/05/23 10:59:44;;;;;;;7.15;1.15;;;;;;;15.92;45.42;100190.50;5133074;28;20468;-83
2021/05/23 11:02:10;;;;;;;6.28;0.90;;;;;;;15.91;46.56;100189.66;5134363;28;20026;-81
2021/05/23 11:04:39;;;;;;;5.93;1.00;;;;;;;15.65;47.84;100198.66;5138196;27;20034;-82
2021/05/23 11:07:12;;;;;;;6.60;0.82;;;;;;;15.45;47.12;100198.69;5138403;28;20026;-81
2021/05/23 11:09:41;;;;;;;9.25;1.08;;;;;;;15.41;48.46;100204.06;5134579;28;20546;-83
2021/05/23 11:12:07;;;;;;;7.78;1.10;;;;;;;16.79;45.45;100202.91;5136585;27;20119;-84
2021/05/23 11:14:33;;;;;;;7.28;1.10;;;;;;;17.15;45.66;100201.09;5141496;27;20510;-81
2021/05/23 11:16:59;;;;;;;6.97;1.13;;;;;;;16.23;46.10;100201.25;5142007;27;20027;-81
2021/05/23 11:19:30;;;;;;;6.80;0.93;;;;;;;16.31;48.14;100200.84;5159610;27;20019;-83
2021/05/23 11:21:57;;;;;;;8.35;1.23;;;;;;;15.61;47.28;100197.13;5141762;27;20031;-82
2021/05/23 11:24:30;;;;;;;5.75;1.05;;;;;;;16.10;47.14;100203.59;5144336;27;20026;-82
2021/05/23 11:26:56;;;;;;;3.72;1.02;;;;;;;17.21;43.78;100206.03;5144953;27;20019;-81
2021/05/23 11:29:25;;;;;;;4.30;1.00;;;;;;;16.89;43.97;100212.91;5143222;27;20097;-82
2021/05/23 11:31:51;;;;;;;4.15;1.00;;;;;;;16.17;45.37;100217.22;5143203;27;20390;-82
2021/05/23 11:34:21;;;;;;;7.20;1.10;;;;;;;16.99;45.02;100209.78;5157553;27;20015;-83
2021/05/23 11:36:47;;;;;;;8.23;1.30;;;;;;;16.18;46.55;100218.91;5138486;27;20030;-82
2021/05/23 11:39:17;;;;;;;8.40;1.45;;;;;;;16.63;47.04;100216.81;5138828;27;20030;-82